Time;durP1;ratioP1;P1;durP2;ratioP2;P2;SDS_P1;SDS_P2;PMS_P1;PMS_P2;Temp;Humidity;BMP_temperature;BMP_pressure;BME280_temperature;BME280_humidity;BME280_pressure;Samples;Min_cycle;Max_cycle;Signal;HPM_P1;HPM_P2
2022/09/04 00:01:35;;;;;;;27.30;13.45;;;;;;;19.79;61.76;101227.16;5051304;28;20034;-39
2022/09/04 00:04:23;;;;;;;23.40;12.35;;;;;;;19.80;61.96;101230.72;5051425;28;20045;-39
2022/09/04 00:07:22;;;;;;;27.60;13.77;;;;;;;19.78;61.68;101239.16;5047768;28;20124;-39
2022/09/04 00:10:10;;;;;;;27.85;13.60;;;;;;;19.77;61.93;101236.66;5052587;28;20120;-39
2022/09/04 00:13:01;;;;;;;32.25;13.95;;;;;;;19.72;61.97;101240.06;5053226;28;20018;-39
2022/09/04 00:15:34;;;;;;;33.15;14.57;;;;;;;19.63;62.52;101238.72;5052631;28;20026;-40
2022/09/04 00:18:02;;;;;;;24.25;14.50;;;;;;;19.57;62.74;101228.75;5045812;28;20022;-39
2022/09/04 00:20:31;;;;;;;27.42;14.95;;;;;;;19.58;63.10;101238.59;5042201;28;20030;-41
2022/09/04 00:23:07;;;;;;;29.45;15.60;;;;;;;19.53;63.07;101240.09;5052580;28;20033;-40
2022/09/04 00:25:49;;;;;;;26.77;14.98;;;;;;;19.50;63.73;101243.28;5053589;28;20030;-39
2022/09/04 00:28:31;;;;;;;30.83;16.23;;;;;;;19.48;63.27;101240.00;5052547;28;20053;-38
2022/09/04 00:31:05;;;;;;;30.38;15.13;;;;;;;19.44;63.67;101246.97;5034891;28;20042;-40
2022/09/04 00:33:37;;;;;;;32.47;16.00;;;;;;;19.43;63.58;101255.38;5053365;28;20025;-40
2022/09/04 00:36:03;;;;;;;28.30;16.10;;;;;;;19.31;63.81;101260.78;5051674;28;20089;-39
2022/09/04 00:38:37;;;;;;;31.60;16.00;;;;;;;19.14;65.33;101259.72;5051978;28;20040;-41
2022/09/04 00:41:26;;;;;;;27.48;15.63;;;;;;;19.10;65.56;101264.81;5052246;28;20072;-40
2022/09/04 00:43:51;;;;;;;32.55;16.17;;;;;;;19.08;65.54;101270.50;5040875;28;20030;-40
2022/09/04 00:46:38;;;;;;;27.52;16.38;;;;;;;19.08;65.97;101270.50;5053147;28;20085;-39
2022/09/04 00:49:15;;;;;;;38.22;16.48;;;;;;;19.06;65.84;101272.66;5051354;28;20029;-39
2022/09/04 00:51:52;;;;;;;31.33;17.08;;;;;;;19.05;66.23;101268.22;5051643;28;20042;-39
2022/09/04 00:54:34;;;;;;;28.02;16.52;;;;;;;19.06;65.98;101267.19;5038340;28;20064;-42
2022/09/04 00:57:38;;;;;;;34.90;18.67;;;;;;;19.06;66.14;101264.47;5050370;28;20044;-41
2022/09/04 01:00:11;;;;;;;36.67;18.50;;;;;;;19.02;66.08;101265.97;5051909;28;20071;-39
2022/09/04 01:03:11;;;;;;;40.45;18.38;;;;;;;19.00;66.26;101273.53;5048524;28;20060;-40
2022/09/04 01:06:02;;;;;;;32.10;18.27;;;;;;;18.97;66.63;101284.91;5051259;28;20037;-40
2022/09/04 01:08:58;;;;;;;39.83;19.02;;;;;;;18.89;66.62;101287.94;5035263;28;20063;-39
2022/09/04 01:11:54;;;;;;;39.15;18.40;;;;;;;18.87;67.28;101287.31;5052501;28;20005;-39
2022/09/04 01:14:33;;;;;;;35.38;16.77;;;;;;;18.86;67.63;101291.13;5047757;28;20033;-39
2022/09/04 01:17:26;;;;;;;37.08;17.38;;;;;;;18.85;67.53;101289.44;5048054;28;20029;-40
2022/09/04 01:20:04;;;;;;;34.03;18.67;;;;;;;18.83;67.56;101289.69;5042478;28;20045;-39
2022/09/04 01:23:01;;;;;;;33.60;19.33;;;;;;;18.84;68.07;101285.88;5052450;28;20044;-38
2022/09/04 01:25:38;;;;;;;37.43;19.30;;;;;;;18.86;68.27;101288.38;5052253;28;20029;-38
2022/09/04 01:28:18;;;;;;;33.80;20.08;;;;;;;18.85;68.55;101298.47;5053231;28;20280;-40
2022/09/04 01:31:18;;;;;;;39.38;20.17;;;;;;;18.84;68.52;101294.06;5052549;28;20033;-41
2022/09/04 01:34:01;;;;;;;41.88;21.35;;;;;;;18.84;69.19;101301.41;5052520;28;20048;-40
2022/09/04 01:36:36;;;;;;;47.55;22.60;;;;;;;18.85;69.11;101297.63;5053888;28;20026;-38
2022/09/04 01:39:02;;;;;;;44.33;23.70;;;;;;;18.85;69.38;101297.63;5050434;28;20018;-38
2022/09/04 01:41:54;;;;;;;40.38;23.20;;;;;;;18.82;69.51;101306.25;5052160;28;20473;-41
2022/09/04 01:44:19;;;;;;;47.17;24.63;;;;;;;18.74;69.84;101306.50;5047795;28;20037;-41
2022/09/04 01:47:06;;;;;;;47.75;23.90;;;;;;;18.72;70.23;101303.16;5052845;28;20093;-40
2022/09/04 01:49:53;;;;;;;39.60;23.70;;;;;;;18.67;70.64;101305.72;5051592;28;20068;-41
2022/09/04 01:52:40;;;;;;;49.67;24.53;;;;;;;18.64;71.06;101301.56;5043754;28;20110;-39
2022/09/04 01:55:05;;;;;;;47.38;26.10;;;;;;;18.64;71.39;101307.88;5048408;28;20056;-39
2022/09/04 01:58:05;;;;;;;54.15;26.05;;;;;;;18.68;71.92;101308.25;5051009;28;20034;-40
2022/09/04 02:00:34;;;;;;;51.50;26.88;;;;;;;18.72;72.42;101305.91;5049632;28;20153;-39
2022/09/04 02:03:24;;;;;;;42.08;25.20;;;;;;;18.71;72.34;101312.41;5052267;28;20040;-38
2022/09/04 02:06:01;;;;;;;51.15;26.50;;;;;;;18.69;72.24;101309.06;5091662;23;20045;-76
2022/09/04 02:08:53;;;;;;;43.25;25.45;;;;;;;18.65;72.17;101309.53;5012613;28;20042;-72
2022/09/04 02:11:22;;;;;;;51.03;25.15;;;;;;;18.57;72.71;101319.91;5012208;28;20027;-75
2022/09/04 02:14:08;;;;;;;47.70;25.10;;;;;;;18.55;72.84;101322.84;4983760;28;20030;-75
2022/09/04 02:16:42;;;;;;;46.40;25.83;;;;;;;18.51;72.88;101324.34;4998146;28;20037;-75
2022/09/04 02:19:44;;;;;;;52.08;25.08;;;;;;;18.46;73.33;101332.34;5037645;28;20070;-75
2022/09/04 02:22:35;;;;;;;43.08;25.48;;;;;;;18.46;73.32;101323.31;5037061;28;20112;-74
2022/09/04 02:25:18;;;;;;;49.33;27.00;;;;;;;18.44;73.80;101323.56;5018928;28;20044;-74
2022/09/04 02:27:44;;;;;;;53.13;25.45;;;;;;;18.42;74.25;101328.41;5038355;28;20037;-74
2022/09/04 02:30:12;;;;;;;48.28;24.90;;;;;;;18.43;74.67;101330.06;5026016;28;20028;-75
2022/09/04 02:32:48;;;;;;;48.45;26.13;;;;;;;18.45;74.91;101341.56;5034347;28;20030;-76
2022/09/04 02:35:26;;;;;;;50.70;26.20;;;;;;;18.50;74.80;101333.56;5002735;28;20048;-73
2022/09/04 02:37:58;;;;;;;49.15;25.83;;;;;;;18.51;74.87;101345.28;5022249;28;20061;-75
2022/09/04 02:40:53;;;;;;;50.13;26.52;;;;;;;18.49;75.14;101342.81;5040474;28;20087;-77
2022/09/04 02:43:43;;;;;;;54.70;25.45;;;;;;;18.44;75.10;101345.38;5028699;28;20029;-76
2022/09/04 02:46:23;;;;;;;44.80;26.08;;;;;;;18.43;75.05;101339.09;5047314;28;20026;-75
2022/09/04 02:49:02;;;;;;;52.28;26.90;;;;;;;18.37;75.68;101342.69;5030814;28;20105;-75
2022/09/04 02:52:05;;;;;;;49.80;26.80;;;;;;;18.36;76.22;101349.19;5045744;28;20029;-73
2022/09/04 02:54:47;;;;;;;49.92;27.10;;;;;;;18.37;76.12;101339.13;5050595;28;20013;-74
2022/09/04 02:57:39;;;;;;;50.38;27.73;;;;;;;18.36;76.27;101351.94;5035580;28;20044;-74
2022/09/04 03:00:11;;;;;;;52.30;28.27;;;;;;;18.37;76.06;101341.84;5029663;28;20046;-74
2022/09/04 03:02:50;;;;;;;49.22;26.15;;;;;;;18.32;76.37;101352.56;5037929;28;20025;-75
2022/09/04 03:05:23;;;;;;;51.25;26.48;;;;;;;18.30;76.64;101354.69;5027679;28;20025;-75
2022/09/04 03:08:06;;;;;;;49.15;27.42;;;;;;;18.23;76.88;101354.75;5020493;28;20045;-73
2022/09/04 03:10:51;;;;;;;51.13;27.38;;;;;;;18.24;77.51;101352.84;5039198;28;20113;-73
2022/09/04 03:13:17;;;;;;;55.90;27.75;;;;;;;18.24;77.38;101361.03;5031662;28;20091;-74
2022/09/04 03:15:44;;;;;;;53.67;26.58;;;;;;;18.26;77.30;101353.47;5051677;28;20037;-74
2022/09/04 03:18:30;;;;;;;51.63;26.50;;;;;;;18.26;77.52;101356.19;5033780;28;20131;-73
2022/09/04 03:21:16;;;;;;;54.50;28.02;;;;;;;18.26;77.70;101364.38;5036160;28;20025;-72
2022/09/04 03:23:47;;;;;;;54.60;28.10;;;;;;;18.24;77.82;101366.47;5018594;28;20022;-74
2022/09/04 03:26:22;;;;;;;52.15;27.38;;;;;;;18.21;77.74;101357.69;5045465;28;20048;-74
2022/09/04 03:29:02;;;;;;;49.78;28.35;;;;;;;18.20;77.45;101369.63;5028758;28;20030;-74
2022/09/04 03:31:37;;;;;;;49.22;27.63;;;;;;;18.14;77.71;101362.34;5049067;28;20021;-75
2022/09/04 03:34:25;;;;;;;49.80;27.60;;;;;;;18.10;78.14;101363.84;5035064;28;20048;-74
2022/09/04 03:37:15;;;;;;;53.00;27.95;;;;;;;18.07;78.25;101364.28;5051772;28;20171;-75
2022/09/04 03:39:59;;;;;;;56.55;27.70;;;;;;;18.06;78.19;101373.53;5037358;28;20401;-73
2022/09/04 03:42:53;;;;;;;55.97;30.05;;;;;;;17.98;78.48;101376.47;5035498;28;20057;-76
2022/09/04 03:45:45;;;;;;;51.75;27.38;;;;;;;17.93;79.19;101379.88;5029058;28;20025;-73
2022/09/04 03:48:15;;;;;;;55.85;28.92;;;;;;;17.91;79.29;101381.13;5049181;28;20033;-75
2022/09/04 03:50:43;;;;;;;52.50;28.45;;;;;;;17.90;79.48;101383.00;5022229;28;20086;-75
2022/09/04 03:53:17;;;;;;;49.83;29.48;;;;;;;17.89;79.32;101381.34;5055425;28;20052;-73
2022/09/04 03:56:07;;;;;;;56.55;29.55;;;;;;;17.88;79.53;101392.47;5025790;28;20022;-75
2022/09/04 03:58:48;;;;;;;63.13;29.70;;;;;;;17.87;80.25;101388.88;5025509;28;20037;-75
2022/09/04 04:01:27;;;;;;;51.70;28.10;;;;;;;17.87;80.23;101390.78;5037251;28;20048;-75
2022/09/04 04:04:23;;;;;;;56.13;29.17;;;;;;;17.85;80.17;101395.59;5050965;28;20013;-75
2022/09/04 04:07:06;;;;;;;55.75;29.30;;;;;;;17.81;80.65;101394.38;5051720;28;20106;-75
2022/09/04 04:09:49;;;;;;;53.45;28.45;;;;;;;17.77;80.92;101394.78;5033959;28;20025;-76
2022/09/04 04:12:24;;;;;;;47.22;27.20;;;;;;;17.78;80.89;101390.16;5052551;28;20033;-75
2022/09/04 04:14:52;;;;;;;51.05;28.35;;;;;;;17.77;80.88;101397.50;5046539;28;20038;-75
2022/09/04 04:17:29;;;;;;;53.35;28.17;;;;;;;17.77;80.78;101400.22;5042612;28;20029;-75
2022/09/04 04:20:01;;;;;;;52.92;28.55;;;;;;;17.77;81.09;101392.06;5042670;28;20040;-76
2022/09/04 04:22:33;;;;;;;57.80;28.77;;;;;;;17.76;81.29;101395.81;5043131;28;20025;-75
2022/09/04 04:25:27;;;;;;;49.20;28.40;;;;;;;17.73;81.06;101393.53;5032553;28;20017;-75
2022/09/04 04:28:30;;;;;;;50.13;28.05;;;;;;;17.72;81.17;101399.19;5051372;28;20025;-76
2022/09/04 04:31:06;;;;;;;54.35;27.83;;;;;;;17.68;81.27;101412.41;5039946;28;20026;-75
2022/09/04 04:33:41;;;;;;;52.08;28.67;;;;;;;17.65;81.50;101418.28;5031148;28;20025;-75
2022/09/04 04:36:25;;;;;;;49.55;28.67;;;;;;;17.67;82.10;101418.91;5007791;28;20073;-76
2022/09/04 04:38:56;;;;;;;53.60;27.92;;;;;;;17.69;82.21;101413.22;5030606;28;20022;-76
2022/09/04 04:42:03;;;;;;;63.72;29.05;;;;;;;17.70;81.77;101415.75;5020234;28;20084;-76
2022/09/04 04:45:48;;;;;;;54.10;28.05;;;;;;;17.70;82.05;101418.47;5029607;28;20508;-76
2022/09/04 04:47:44;;;;;;;47.10;26.85;;;;;;;17.71;81.88;101417.41;5007714;28;20382;-76
2022/09/04 04:50:15;;;;;;;58.28;28.10;;;;;;;17.70;81.77;101420.38;5021743;28;20274;-75
2022/09/04 04:53:06;;;;;;;49.83;27.17;;;;;;;17.68;82.17;101415.13;5039293;28;20033;-75
2022/09/04 04:55:48;;;;;;;49.90;27.15;;;;;;;17.66;82.00;101422.66;5039308;28;20156;-75
2022/09/04 04:58:39;;;;;;;51.50;26.83;;;;;;;17.66;82.07;101425.38;5009931;28;20030;-75
2022/09/04 05:01:21;;;;;;;55.30;27.00;;;;;;;17.66;82.02;101419.09;5017700;28;20021;-74
2022/09/04 05:04:08;;;;;;;50.33;27.85;;;;;;;17.64;82.03;101422.06;5039799;28;20037;-75
2022/09/04 05:06:53;;;;;;;48.07;27.63;;;;;;;17.64;82.37;101422.06;5021830;28;20054;-76
2022/09/04 05:09:34;;;;;;;55.40;26.98;;;;;;;17.63;82.55;101431.25;5020761;28;20327;-76
2022/09/04 05:12:27;;;;;;;54.58;27.65;;;;;;;17.63;82.45;101436.69;5022464;28;20021;-73
2022/09/04 05:15:27;;;;;;;53.55;28.63;;;;;;;17.62;82.30;101439.66;5035979;28;20476;-74
2022/09/04 05:18:03;;;;;;;49.88;27.48;;;;;;;17.54;82.73;101448.88;5029828;28;20133;-76
2022/09/04 05:20:38;;;;;;;49.03;28.70;;;;;;;17.52;83.34;101449.09;5016180;28;20052;-76
2022/09/04 05:23:12;;;;;;;51.95;27.85;;;;;;;17.53;83.49;101453.47;5013206;28;20045;-75
2022/09/04 05:25:59;;;;;;;56.20;29.58;;;;;;;17.57;83.60;101459.34;5025612;28;20038;-76
2022/09/04 05:28:38;;;;;;;57.25;30.52;;;;;;;17.62;83.74;101462.25;5015848;28;20034;-75
2022/09/04 05:31:22;;;;;;;58.92;28.77;;;;;;;17.66;83.78;101463.50;5027480;28;20048;-75
2022/09/04 05:33:50;;;;;;;56.88;28.52;;;;;;;17.75;83.94;101458.66;5033557;28;20372;-76
2022/09/04 05:36:36;;;;;;;50.58;27.85;;;;;;;17.95;83.45;101477.66;5018615;28;20025;-76
2022/09/04 05:39:39;;;;;;;55.25;28.52;;;;;;;18.27;82.77;101473.13;5018779;28;20057;-75
2022/09/04 05:42:32;;;;;;;43.25;24.25;;;;;;;18.73;81.72;101482.09;5018107;28;20486;-73
2022/09/04 05:45:04;;;;;;;44.83;26.77;;;;;;;19.15;79.56;101485.16;5015367;28;20043;-73
2022/09/04 05:47:42;;;;;;;52.45;27.45;;;;;;;19.55;77.53;101490.22;5009612;28;20425;-75
2022/09/04 05:50:19;;;;;;;50.30;27.50;;;;;;;19.79;76.09;101494.81;5013523;28;20105;-74
2022/09/04 05:53:14;;;;;;;54.55;27.48;;;;;;;20.00;74.03;101492.69;5012713;28;20439;-75
2022/09/04 05:56:17;;;;;;;48.40;26.35;;;;;;;20.33;73.64;101497.75;5001543;28;20354;-74
2022/09/04 05:59:08;;;;;;;57.28;30.20;;;;;;;20.48;72.66;101494.59;5015745;28;20037;-74
2022/09/04 06:02:03;;;;;;;51.25;29.13;;;;;;;20.72;72.29;101503.72;5021763;28;20029;-74
2022/09/04 06:04:38;;;;;;;53.13;28.85;;;;;;;21.07;71.37;101500.25;4990866;28;20017;-74
2022/09/04 06:07:03;;;;;;;50.80;28.20;;;;;;;21.53;69.47;101504.94;5004379;28;20049;-75
2022/09/04 06:10:10;;;;;;;54.75;31.08;;;;;;;21.92;66.68;101511.56;5017155;28;20401;-75
2022/09/04 06:12:53;;;;;;;56.45;30.10;;;;;;;21.82;67.14;101510.50;4986632;28;20034;-77
2022/09/04 06:15:21;;;;;;;61.85;31.05;;;;;;;21.53;68.47;101515.91;5029276;28;20025;-76
2022/09/04 06:18:03;;;;;;;61.10;33.47;;;;;;;21.30;68.97;101515.84;5012842;28;20041;-75
2022/09/04 06:20:49;;;;;;;72.55;33.50;;;;;;;20.88;70.84;101513.16;5009563;28;20465;-75
2022/09/04 06:23:39;;;;;;;61.13;33.58;;;;;;;20.67;71.59;101515.41;5028756;28;20112;-74
2022/09/04 06:26:31;;;;;;;63.50;34.50;;;;;;;20.15;74.27;101513.09;5029114;28;20036;-74
2022/09/04 06:29:06;;;;;;;66.93;35.55;;;;;;;19.94;75.78;101516.31;5028569;28;20040;-74
2022/09/04 06:31:57;;;;;;;68.00;37.22;;;;;;;19.94;75.59;101519.88;5019772;28;20049;-76
2022/09/04 06:34:33;;;;;;;68.80;37.45;;;;;;;19.87;76.84;101523.72;4991963;28;20045;-75
2022/09/04 06:37:20;;;;;;;76.05;38.88;;;;;;;19.86;77.39;101522.06;4991433;28;20045;-74
2022/09/04 06:39:51;;;;;;;78.57;39.22;;;;;;;19.47;79.35;101533.13;5011255;28;20034;-73
2022/09/04 06:42:35;;;;;;;80.55;41.63;;;;;;;19.41;80.32;101538.66;4991380;28;20125;-73
2022/09/04 06:45:03;;;;;;;79.32;42.17;;;;;;;19.77;80.57;101535.19;5009423;28;20034;-74
2022/09/04 06:48:01;;;;;;;82.70;41.58;;;;;;;20.68;78.00;101535.38;5013637;28;20449;-74
2022/09/04 06:50:26;;;;;;;79.13;41.45;;;;;;;21.63;74.25;101537.22;5010993;28;20034;-75
2022/09/04 06:53:28;;;;;;;71.38;36.72;;;;;;;22.72;69.52;101544.72;5032513;28;20030;-76
2022/09/04 06:56:05;;;;;;;78.95;40.20;;;;;;;22.81;66.87;101535.00;5012597;28;20025;-76
2022/09/04 06:59:12;;;;;;;81.63;40.42;;;;;;;23.80;65.04;101550.09;5001289;28;20026;-78
2022/09/04 07:01:51;;;;;;;;;;;;;;;23.64;63.49;101552.63;5004139;28;20034;-77
2022/09/04 07:04:34;;;;;;;78.05;41.50;;;;;;;23.58;64.21;101547.28;5005981;28;19920;-76
2022/09/04 07:07:12;;;;;;;78.55;41.60;;;;;;;23.93;64.33;101562.66;5039909;28;20038;-73
2022/09/04 07:09:41;;;;;;;78.88;40.90;;;;;;;25.19;61.81;101548.69;5034889;28;20033;-75
2022/09/04 07:12:38;;;;;;;81.35;42.05;;;;;;;25.82;58.73;101561.84;5049360;28;20056;-76
2022/09/04 07:15:31;;;;;;;85.03;43.60;;;;;;;26.16;56.99;101564.25;5036792;28;20034;-78
2022/09/04 07:18:16;;;;;;;102.30;55.53;;;;;;;25.22;58.96;101558.38;5035994;28;20059;-78
2022/09/04 07:21:09;;;;;;;111.75;59.38;;;;;;;24.78;60.54;101555.75;5031813;28;20420;-78
2022/09/04 07:23:53;;;;;;;115.05;59.65;;;;;;;24.85;60.36;101563.78;5015721;28;20459;-76
2022/09/04 07:26:40;;;;;;;112.88;61.13;;;;;;;24.92;62.51;101567.16;4980845;28;20072;-77
2022/09/04 07:29:28;;;;;;;113.10;61.20;;;;;;;25.08;60.73;101563.47;4995029;28;20390;-77
2022/09/04 07:32:19;;;;;;;125.45;66.30;;;;;;;25.35;60.24;101563.44;4995635;28;20042;-75
2022/09/04 07:35:02;;;;;;;123.35;65.80;;;;;;;25.68;59.85;101574.44;4982721;28;20500;-75
2022/09/04 07:37:55;;;;;;;123.10;65.95;;;;;;;25.74;59.27;101573.38;5014182;28;20049;-76
2022/09/04 07:40:25;;;;;;;125.57;65.28;;;;;;;25.92;58.53;101583.16;5029628;28;20381;-78
2022/09/04 07:43:02;;;;;;;130.52;71.95;;;;;;;25.69;59.66;101581.59;4997232;28;20032;-77
2022/09/04 07:45:31;;;;;;;128.85;65.25;;;;;;;26.26;59.57;101586.38;5014336;28;20119;-76
2022/09/04 07:48:21;;;;;;;132.32;62.55;;;;;;;27.39;56.00;101586.66;5014088;28;20109;-76
2022/09/04 07:51:03;;;;;;;140.60;75.90;;;;;;;27.41;54.30;101579.75;4997521;28;20052;-77
2022/09/04 07:53:43;;;;;;;131.35;71.75;;;;;;;27.46;54.09;101601.03;5013624;28;20025;-75
2022/09/04 07:56:17;;;;;;;121.90;69.07;;;;;;;27.71;53.10;101592.72;5017932;28;20038;-76
2022/09/04 07:58:49;;;;;;;120.35;67.18;;;;;;;27.50;54.62;101602.13;5021750;28;20034;-77
2022/09/04 08:01:32;;;;;;;133.52;73.13;;;;;;;26.85;54.96;101594.31;4997197;28;20030;-76
2022/09/04 08:04:28;;;;;;;135.73;74.10;;;;;;;27.45;55.01;101596.59;5012818;28;20033;-77
2022/09/04 08:07:04;;;;;;;124.95;72.80;;;;;;;27.85;53.12;101597.69;5015495;28;20417;-77
2022/09/04 08:09:38;;;;;;;128.73;74.63;;;;;;;27.86;53.00;101602.09;5014499;28;20030;-78
2022/09/04 08:12:24;;;;;;;135.25;76.65;;;;;;;27.73;53.24;101600.75;5019227;28;20545;-76
2022/09/04 08:15:14;;;;;;;132.30;73.90;;;;;;;28.36;51.93;101600.31;5015610;28;20061;-75
2022/09/04 08:17:49;;;;;;;123.78;71.63;;;;;;;28.90;50.45;101607.78;5015833;28;20029;-73
2022/09/04 08:20:36;;;;;;;137.50;77.65;;;;;;;29.45;48.76;101616.00;5036756;28;20029;-74
2022/09/04 08:23:28;;;;;;;122.63;72.15;;;;;;;29.53;49.08;101613.44;5032554;28;20072;-76
2022/09/04 08:26:12;;;;;;;126.75;72.32;;;;;;;29.85;47.40;101616.75;5030987;28;20062;-76
2022/09/04 08:28:58;;;;;;;123.13;73.60;;;;;;;29.28;47.65;101619.19;5010535;28;20374;-76
2022/09/04 08:31:34;;;;;;;123.55;71.70;;;;;;;30.04;47.08;101622.38;5023342;28;20041;-77
2022/09/04 08:34:01;;;;;;;117.32;70.32;;;;;;;30.34;45.85;101624.03;4992891;28;20448;-77
2022/09/04 08:36:33;;;;;;;132.73;74.15;;;;;;;29.74;46.74;101625.19;5017420;28;20034;-75
2022/09/04 08:39:06;;;;;;;119.10;67.55;;;;;;;30.71;44.99;101631.59;5031099;28;20060;-76
2022/09/04 08:42:04;;;;;;;125.80;72.55;;;;;;;29.56;46.31;101627.84;5013380;28;20037;-77
2022/09/04 08:44:42;;;;;;;123.55;75.07;;;;;;;30.08;45.33;101634.56;5030096;28;20029;-76
2022/09/04 08:47:26;;;;;;;110.22;65.15;;;;;;;30.38;44.88;101641.72;5025438;28;20521;-75
2022/09/04 08:50:17;;;;;;;135.05;78.78;;;;;;;29.83;45.77;101639.25;5029819;28;20048;-75
2022/09/04 08:53:21;;;;;;;133.27;75.55;;;;;;;29.77;46.67;101639.59;4988952;28;20386;-75
2022/09/04 08:55:58;;;;;;;126.50;76.20;;;;;;;30.17;45.72;101633.59;5010704;28;20627;-75
2022/09/04 08:58:32;;;;;;;130.75;72.28;;;;;;;30.37;45.29;101635.34;5008645;28;20071;-75
2022/09/04 09:01:13;;;;;;;108.10;60.75;;;;;;;30.52;44.83;101633.53;5025991;28;20429;-77
2022/09/04 09:03:56;;;;;;;117.80;64.35;;;;;;;30.52;44.33;101639.91;5006846;28;20029;-75
2022/09/04 09:06:52;;;;;;;120.45;66.70;;;;;;;31.10;42.90;101646.34;5004730;28;20046;-75
2022/09/04 09:10:08;;;;;;;122.55;65.20;;;;;;;30.96;43.62;101644.31;5028401;28;20481;-74
2022/09/04 09:12:40;;;;;;;101.35;52.45;;;;;;;30.92;42.56;101654.41;4935263;29;20040;-74
2022/09/04 09:15:24;;;;;;;105.75;54.72;;;;;;;30.72;42.45;101654.63;5007439;28;20046;-74
2022/09/04 09:18:30;;;;;;;101.28;55.85;;;;;;;29.87;44.27;101645.06;5013143;28;20490;-75
2022/09/04 09:21:23;;;;;;;108.35;54.95;;;;;;;29.23;45.52;101649.75;4992085;28;20125;-74
2022/09/04 09:24:01;;;;;;;113.75;58.28;;;;;;;28.60;47.08;101653.13;5013287;28;20444;-76
2022/09/04 09:26:28;;;;;;;112.85;57.92;;;;;;;29.19;46.14;101651.41;5013341;28;20022;-75
2022/09/04 09:29:18;;;;;;;110.32;56.25;;;;;;;29.87;43.95;101650.59;4995170;28;20034;-75
2022/09/04 09:32:22;;;;;;;107.20;53.83;;;;;;;30.09;43.32;101652.88;4995414;28;20034;-75
2022/09/04 09:35:12;;;;;;;98.00;51.00;;;;;;;29.91;44.18;101649.75;5013130;28;20086;-75
2022/09/04 09:37:55;;;;;;;93.20;44.70;;;;;;;29.34;45.26;101654.09;4999205;28;20029;-75
2022/09/04 09:40:54;;;;;;;80.20;42.33;;;;;;;29.57;44.16;101657.22;4999110;28;20109;-76
2022/09/04 09:43:20;;;;;;;87.50;43.13;;;;;;;29.21;45.61;101649.19;4994589;28;20022;-75
2022/09/04 09:45:53;;;;;;;106.13;50.70;;;;;;;28.80;45.77;101663.25;5012522;28;20061;-74
2022/09/04 09:49:01;;;;;;;104.18;52.20;;;;;;;28.04;47.84;101659.59;4995421;28;20037;-74
2022/09/04 09:51:52;;;;;;;101.22;48.05;;;;;;;28.77;46.80;101658.28;4975464;28;20104;-74
2022/09/04 09:54:48;;;;;;;84.00;41.20;;;;;;;29.64;44.91;101653.03;5014594;28;20088;-74
2022/09/04 09:57:32;;;;;;;73.70;35.03;;;;;;;29.38;44.00;101649.59;5014740;28;20034;-75
2022/09/04 10:00:17;;;;;;;76.05;31.98;;;;;;;28.92;45.70;101658.22;5013016;28;20033;-76
2022/09/04 10:02:42;;;;;;;74.05;37.83;;;;;;;28.71;45.80;101649.19;5015218;28;20030;-73
2022/09/04 10:05:13;;;;;;;81.03;41.50;;;;;;;28.24;46.88;101653.22;5038710;28;20093;-75
2022/09/04 10:07:53;;;;;;;82.93;39.83;;;;;;;27.82;48.88;101646.09;5053596;28;20338;-75
2022/09/04 10:10:25;;;;;;;61.63;32.17;;;;;;;28.11;48.32;101653.81;5028742;28;20052;-75
2022/09/04 10:13:08;;;;;;;63.55;33.45;;;;;;;28.35;46.98;101648.47;5045939;28;20061;-74
2022/09/04 10:16:09;;;;;;;74.97;37.38;;;;;;;28.46;47.24;101652.88;5013935;28;20479;-74
2022/09/04 10:19:03;;;;;;;78.90;36.58;;;;;;;28.52;47.11;101648.19;5031487;28;20040;-74
2022/09/04 10:21:28;;;;;;;78.65;33.33;;;;;;;28.75;47.47;101653.03;5030587;28;20026;-74
2022/09/04 10:24:04;;;;;;;73.35;34.75;;;;;;;28.47;46.78;101660.09;5030817;28;20385;-74
2022/09/04 10:27:17;;;;;;;60.42;30.08;;;;;;;28.23;47.54;101657.94;5013952;28;20484;-73
2022/09/04 10:29:54;;;;;;;45.65;21.02;;;;;;;27.85;46.74;101664.09;4950820;29;20571;-76
2022/09/04 10:32:31;;;;;;;49.17;24.63;;;;;;;27.79;46.74;101657.69;4934229;29;20539;-73
2022/09/04 10:35:26;;;;;;;51.67;23.20;;;;;;;27.86;47.41;101654.66;4999837;28;20079;-75
2022/09/04 10:37:54;;;;;;;67.30;32.70;;;;;;;27.58;48.17;101657.69;5014159;28;20030;-76
2022/09/04 10:40:48;;;;;;;63.47;27.85;;;;;;;27.01;48.66;101663.41;5031474;28;20108;-76
2022/09/04 10:43:27;;;;;;;53.75;25.33;;;;;;;26.63;50.16;101658.03;5000894;28;20041;-75
2022/09/04 10:46:07;;;;;;;53.08;28.20;;;;;;;26.34;51.47;101654.84;5014404;28;20432;-75
2022/09/04 10:49:10;;;;;;;57.28;27.30;;;;;;;26.46;51.23;101657.38;5031463;28;20057;-76
2022/09/04 10:51:41;;;;;;;48.65;24.38;;;;;;;26.55;52.09;101660.50;5031471;28;20021;-75
2022/09/04 10:54:25;;;;;;;49.45;24.83;;;;;;;26.05;52.13;101663.50;5033246;28;20071;-74
2022/09/04 10:57:21;;;;;;;49.58;22.75;;;;;;;26.02;52.94;101669.56;5032598;28;20067;-75
2022/09/04 11:00:12;;;;;;;57.60;28.80;;;;;;;26.10;52.56;101664.66;4997375;28;20029;-75
2022/09/04 11:03:10;;;;;;;54.10;25.35;;;;;;;26.04;53.44;101667.38;5014526;28;20071;-75
2022/09/04 11:05:45;;;;;;;50.25;22.77;;;;;;;26.07;53.64;101671.53;5014328;28;20128;-74
2022/09/04 11:08:22;;;;;;;49.17;23.77;;;;;;;26.04;53.40;101664.63;5031837;28;20057;-75
2022/09/04 11:11:05;;;;;;;57.53;26.08;;;;;;;25.90;53.71;101663.41;5031794;28;20041;-75
2022/09/04 11:13:48;;;;;;;41.97;22.42;;;;;;;25.86;54.13;101667.78;5032197;28;20369;-75
2022/09/04 11:16:38;;;;;;;87.13;39.45;;;;;;;26.00;56.35;101671.75;5032506;28;20029;-76
2022/09/04 11:19:23;;;;;;;117.22;54.45;;;;;;;26.07;57.37;101671.53;5032902;28;20662;-75
2022/09/04 11:22:13;;;;;;;111.05;51.25;;;;;;;26.02;58.52;101668.72;5034829;28;20033;-75
2022/09/04 11:25:05;;;;;;;110.88;53.25;;;;;;;25.94;58.58;101667.28;5035464;28;20025;-74
2022/09/04 11:27:54;;;;;;;113.78;54.00;;;;;;;26.03;58.96;101660.19;5022598;28;20037;-75
2022/09/04 11:30:41;;;;;;;110.65;48.83;;;;;;;26.67;57.64;101666.59;5016594;28;20030;-75
2022/09/04 11:33:21;;;;;;;105.22;50.22;;;;;;;27.21;55.38;101669.00;5033066;28;20053;-74
2022/09/04 11:36:34;;;;;;;93.80;43.83;;;;;;;27.54;53.18;101662.13;5034877;28;20021;-75
2022/09/04 11:39:24;;;;;;;102.22;45.95;;;;;;;27.42;53.66;101666.28;5052339;28;20088;-76
2022/09/04 11:42:12;;;;;;;88.90;43.70;;;;;;;27.33;54.18;101657.69;5051274;28;20025;-75
2022/09/04 11:45:02;;;;;;;110.78;48.00;;;;;;;27.18;54.38;101669.56;5041138;28;20045;-75
2022/09/04 11:47:28;;;;;;;99.18;45.58;;;;;;;27.00;55.21;101661.75;5034461;28;20032;-75
2022/09/04 11:50:28;;;;;;;106.75;49.08;;;;;;;26.92;55.56;101666.69;5034555;28;20242;-74
2022/09/04 11:53:14;;;;;;;92.85;45.88;;;;;;;26.85;55.41;101668.06;5020175;28;20452;-76
2022/09/04 11:55:55;;;;;;;93.22;44.42;;;;;;;26.75;55.27;101662.50;5034181;28;20029;-75
2022/09/04 11:58:34;;;;;;;111.82;48.70;;;;;;;26.80;55.65;101668.84;5035082;28;20040;-75
2022/09/04 12:01:34;;;;;;;79.90;38.72;;;;;;;27.14;55.41;101673.94;5016324;28;20333;-75
2022/09/04 12:04:13;;;;;;;93.10;42.95;;;;;;;27.42;54.49;101675.41;5013079;28;20026;-75
2022/09/04 12:07:04;;;;;;;81.68;39.33;;;;;;;27.57;53.46;101680.13;5014207;28;20109;-74
2022/09/04 12:09:37;;;;;;;87.68;45.35;;;;;;;27.44;53.89;101675.13;4998421;28;20026;-75
2022/09/04 12:12:30;;;;;;;86.20;44.38;;;;;;;27.39;53.52;101670.41;4997179;28;20026;-74
2022/09/04 12:15:11;;;;;;;78.82;38.28;;;;;;;27.57;53.58;101672.66;5013935;28;20091;-74
2022/09/04 12:18:13;;;;;;;103.82;45.75;;;;;;;27.51;53.24;101672.91;5014375;28;20033;-73
2022/09/04 12:20:39;;;;;;;84.00;39.47;;;;;;;27.48;54.75;101679.81;5015982;28;20576;-75